createdAt,value
2022-11-08T00:02:41.629Z,12.62
2022-11-08T00:07:58.517Z,12.5
2022-11-08T00:13:15.886Z,12.38
2022-11-08T00:18:32.125Z,12.5
2022-11-08T00:22:58.043Z,12.5
2022-11-08T00:28:06.527Z,12.38
2022-11-08T00:33:15.641Z,12.38
2022-11-08T00:38:24.126Z,12.38
2022-11-08T00:43:33.880Z,12.31
2022-11-08T00:48:43.624Z,12.31
2022-11-08T00:53:52.132Z,12.38
2022-11-08T00:59:01.879Z,12.31
2022-11-08T01:04:09.785Z,12.38
2022-11-08T01:09:18.208Z,12.5
2022-11-08T01:14:27.307Z,12.44
2022-11-08T01:19:36.441Z,12.56
2022-11-08T01:24:46.204Z,12.75
2022-11-08T01:29:54.712Z,12.88
2022-11-08T01:35:04.442Z,12.69
2022-11-08T01:40:14.230Z,12.81
2022-11-08T01:45:22.681Z,12.69
2022-11-08T01:50:32.440Z,12.69
2022-11-08T01:55:40.952Z,12.75
2022-11-08T02:00:50.116Z,12.88
2022-11-08T02:06:00.553Z,12.94
2022-11-08T02:11:10.201Z,12.94
2022-11-08T02:16:23.405Z,12.94
2022-11-08T02:21:39.563Z,13.12
2022-11-08T02:26:58.288Z,12.94
2022-11-08T02:32:14.600Z,12.88
2022-11-08T02:37:31.563Z,13
2022-11-08T02:42:48.835Z,13.06
2022-11-08T02:48:10.670Z,13
2022-11-08T02:53:21.372Z,13.19
2022-11-08T02:58:38.606Z,13.19
2022-11-08T03:03:04.730Z,13.31
2022-11-08T03:07:46.039Z,13.31
2022-11-08T03:12:55.810Z,13.25
2022-11-08T03:18:07.257Z,13.19
2022-11-08T03:23:25.973Z,13
2022-11-08T03:28:43.768Z,12.88
2022-11-08T03:34:01.268Z,12.69
2022-11-08T03:39:18.609Z,12.75
2022-11-08T03:43:49.878Z,12.62
2022-11-08T03:48:59.654Z,12.56
2022-11-08T03:54:08.120Z,12.44
2022-11-08T03:59:17.887Z,12.5
2022-11-08T04:04:27.640Z,12.5
2022-11-08T04:09:38.677Z,12.31
2022-11-08T04:14:48.447Z,12.25
2022-11-08T04:19:58.199Z,12.25
2022-11-08T04:25:07.960Z,12
2022-11-08T04:30:17.097Z,12.06
2022-11-08T04:35:26.197Z,12
2022-11-08T04:40:35.962Z,11.88
2022-11-08T04:45:45.116Z,12.06
2022-11-08T04:50:54.192Z,11.88
2022-11-08T04:56:03.956Z,11.69
2022-11-08T05:01:12.496Z,11.88
2022-11-08T05:06:20.912Z,11.88
2022-11-08T05:11:30.084Z,11.81
2022-11-08T05:16:38.549Z,11.69
2022-11-08T05:21:50.450Z,11.5
2022-11-08T05:27:07.252Z,11.5
2022-11-08T05:32:23.420Z,11.5
2022-11-08T05:37:38.978Z,11.69
2022-11-08T05:42:59.451Z,11.69
2022-11-08T05:48:10.619Z,11.56
2022-11-08T05:53:25.503Z,11.69
2022-11-08T05:58:41.018Z,11.69
2022-11-08T06:03:55.947Z,11.69
2022-11-08T06:08:07.801Z,11.69
2022-11-08T06:13:16.915Z,11.62
2022-11-08T06:18:26.675Z,11.69
2022-11-08T06:23:35.799Z,11.75
2022-11-08T06:28:44.949Z,11.56
2022-11-08T06:33:54.037Z,11.56
2022-11-08T06:39:05.817Z,11.62
2022-11-08T06:44:21.981Z,11.62
2022-11-08T06:49:36.868Z,11.75
2022-11-08T06:54:52.381Z,11.81
2022-11-08T07:00:07.933Z,11.81
2022-11-08T07:05:22.794Z,12.06
2022-11-08T07:10:38.300Z,12.12
2022-11-08T07:15:10.225Z,12.5
2022-11-08T07:20:19.955Z,12.62
2022-11-08T07:25:28.436Z,13
2022-11-08T07:30:38.197Z,13.06
2022-11-08T07:35:47.962Z,13.25
2022-11-08T07:40:56.468Z,13.38
2022-11-08T07:46:04.924Z,13.5
2022-11-08T07:51:14.681Z,13.62
2022-11-08T07:56:24.519Z,13.88
2022-11-08T08:01:33.641Z,13.88
2022-11-08T08:06:43.319Z,14
2022-11-08T08:11:54.353Z,13.94
2022-11-08T08:17:02.839Z,14
2022-11-08T08:22:12.606Z,14.31
2022-11-08T08:27:21.748Z,14.44
2022-11-08T08:32:31.860Z,14.44
2022-11-08T08:37:40.599Z,14.75
2022-11-08T08:42:50.356Z,15.19
2022-11-08T08:47:58.839Z,15.31
2022-11-08T08:53:07.316Z,15.25
2022-11-08T08:58:16.454Z,15.31
2022-11-08T09:03:26.197Z,15.31
2022-11-08T09:08:36.679Z,15.31
2022-11-08T09:13:53.661Z,15.31
2022-11-08T09:19:10.880Z,15.31
2022-11-08T09:24:28.517Z,15.38
2022-11-08T09:29:44.521Z,15.38
2022-11-08T09:39:28.777Z,15.56
2022-11-08T09:44:37.878Z,15.75
2022-11-08T09:49:47.674Z,15.75
2022-11-08T09:54:56.785Z,15.81
2022-11-08T10:00:05.241Z,15.69
2022-11-08T10:05:13.719Z,15.88
2022-11-08T10:10:23.477Z,15.81
2022-11-08T10:15:32.609Z,15.75
2022-11-08T10:20:42.355Z,15.75
2022-11-08T10:25:52.118Z,15.81
2022-11-08T10:31:00.652Z,15.75
2022-11-08T10:36:10.359Z,15.69
2022-11-08T10:41:20.158Z,15.69
2022-11-08T10:46:29.230Z,15.81
2022-11-08T10:51:37.716Z,15.75
2022-11-08T10:56:46.871Z,15.81
2022-11-08T11:01:56.009Z,15.69
2022-11-08T11:07:05.775Z,15.62
2022-11-08T11:12:15.496Z,15.69
2022-11-08T11:17:25.277Z,15.69
2022-11-08T11:24:10.389Z,15.75
2022-11-08T11:31:19.413Z,15.75
2022-11-08T11:38:17.087Z,15.5
2022-11-08T11:43:40.695Z,15.56
2022-11-08T11:48:51.765Z,15.62
2022-11-08T11:54:09.182Z,15.62
2022-11-08T12:01:30.420Z,15.81
2022-11-08T12:01:59.349Z,15.81
2022-11-08T12:07:05.769Z,15.69
2022-11-08T12:13:35.748Z,16.06
2022-11-08T12:20:31.721Z,16.19
2022-11-08T12:27:07.006Z,16.12
2022-11-08T12:28:00.495Z,16.12
2022-11-08T12:33:02.227Z,16.25
2022-11-08T12:42:09.090Z,16.25
2022-11-08T12:47:18.515Z,16.38
2022-11-08T12:52:34.041Z,16.62
2022-11-08T12:53:02.514Z,16.62
2022-11-08T12:57:54.678Z,17.06
2022-11-08T12:58:21.239Z,17.06
2022-11-08T13:03:10.838Z,16.81
2022-11-08T13:03:38.843Z,16.81
2022-11-08T13:08:28.915Z,17.38
2022-11-08T13:08:55.638Z,17.38
2022-11-08T13:13:45.106Z,17.38
2022-11-08T13:23:56.837Z,17
2022-11-08T13:26:16.797Z,17
2022-11-08T13:31:20.434Z,17.38
2022-11-08T13:41:06.681Z,16.56
2022-11-08T13:41:36.847Z,16.56
2022-11-08T13:46:46.525Z,16.5
2022-11-08T13:47:03.389Z,16.5
2022-11-08T13:52:05.239Z,16.19
2022-11-08T13:55:36.790Z,16.19
2022-11-08T14:00:53.561Z,16.06
2022-11-08T14:06:10.599Z,16.06
2022-11-08T14:07:00.764Z,16.06
2022-11-08T14:16:48.131Z,16.19
2022-11-08T14:23:41.004Z,16.44
2022-11-08T14:28:45.564Z,16.38
2022-11-08T14:28:53.576Z,16.38
2022-11-08T14:34:04.279Z,16.94
2022-11-08T14:34:25.093Z,16.94
2022-11-08T14:39:35.194Z,16.38
2022-11-08T14:39:41.326Z,16.38
2022-11-08T14:44:50.037Z,16.44
2022-11-08T14:50:47.159Z,16.12
2022-11-08T14:51:37.173Z,16.12
2022-11-08T14:56:15.522Z,16.12
2022-11-08T15:04:07.464Z,16.25
2022-11-08T15:09:41.884Z,15.94
2022-11-08T15:10:13.759Z,15.94
2022-11-08T15:15:04.496Z,15.81
2022-11-08T15:15:29.747Z,15.81
2022-11-08T15:20:21.894Z,15.69
2022-11-08T15:20:45.896Z,15.69
2022-11-08T15:25:39.987Z,15.56
2022-11-08T15:26:01.420Z,15.56
2022-11-08T15:31:01.886Z,15.5
2022-11-08T15:31:16.302Z,15.5
2022-11-08T15:36:19.990Z,15.5
2022-11-08T15:36:33.373Z,15.5
2022-11-08T15:41:43.191Z,15.5
2022-11-08T15:42:01.048Z,15.5
2022-11-08T15:47:01.873Z,15.44
2022-11-08T15:47:11.614Z,15.44
2022-11-08T15:52:21.646Z,15.44
2022-11-08T15:52:29.786Z,15.44
2022-11-08T15:57:38.678Z,15.38
2022-11-08T15:57:46.498Z,15.38
2022-11-08T16:02:55.476Z,15.31
2022-11-08T16:08:56.486Z,15.25
2022-11-08T16:12:33.045Z,15.25
2022-11-08T16:17:47.897Z,15.31
2022-11-08T16:24:08.438Z,15.19
2022-11-08T16:24:51.652Z,15.19
2022-11-08T16:29:54.034Z,15.31
2022-11-08T16:35:35.801Z,15.25
2022-11-08T16:44:55.158Z,15.38
2022-11-08T16:50:22.840Z,15.38
2022-11-08T16:55:31.958Z,15.38
2022-11-08T17:00:41.722Z,15.31
2022-11-08T17:05:50.200Z,15.31
2022-11-08T17:11:00.601Z,15.31
2022-11-08T17:16:10.389Z,15.38
2022-11-08T17:21:45.013Z,15.44
2022-11-08T17:26:28.595Z,15.44
2022-11-08T17:31:39.640Z,15.5
2022-11-08T17:36:49.428Z,15.56
2022-11-08T17:41:58.517Z,15.56
2022-11-08T17:47:10.483Z,15.56
2022-11-08T17:52:25.340Z,15.5
2022-11-08T17:57:40.873Z,15.56
2022-11-08T18:02:57.112Z,15.5
2022-11-08T18:08:12.542Z,15.5
2022-11-08T18:13:27.460Z,15.5
2022-11-08T18:18:43.569Z,15.5
2022-11-08T18:23:59.101Z,15.44
2022-11-08T18:29:15.261Z,15.44
2022-11-08T18:34:30.776Z,15.44
2022-11-08T18:39:45.656Z,15.44
2022-11-08T18:43:47.958Z,15.44
2022-11-08T18:48:57.078Z,15.5
2022-11-08T18:54:05.558Z,15.44
2022-11-08T18:59:14.037Z,15.44
2022-11-08T19:04:25.181Z,15.5
2022-11-08T19:09:40.690Z,15.5
2022-11-08T19:14:55.607Z,15.5
2022-11-08T19:20:11.099Z,15.5
2022-11-08T19:25:26.639Z,15.5
2022-11-08T19:30:42.809Z,15.62
2022-11-08T19:35:58.926Z,15.5
2022-11-08T19:40:32.762Z,15.44
2022-11-08T19:45:35.509Z,15.56
2022-11-08T19:50:43.957Z,15.56
2022-11-08T19:55:53.720Z,15.56
2022-11-08T20:01:02.837Z,15.44
2022-11-08T20:06:11.321Z,15.5
2022-11-08T20:11:21.083Z,15.5
2022-11-08T20:16:29.560Z,15.56
2022-11-08T20:21:38.680Z,15.56
2022-11-08T20:26:47.161Z,15.56
2022-11-08T20:31:56.685Z,15.5
2022-11-08T20:37:04.109Z,15.5
2022-11-08T20:42:13.903Z,15.44
2022-11-08T20:47:23.639Z,15.38
2022-11-08T20:52:32.755Z,15.31
2022-11-08T20:57:41.908Z,15.38
2022-11-08T21:02:58.973Z,15.44
2022-11-08T21:10:13.488Z,15.38
2022-11-08T21:13:33.665Z,15.44
2022-11-08T21:18:49.157Z,15.31
2022-11-08T21:24:05.592Z,15.38
2022-11-08T21:28:35.954Z,15.38
2022-11-08T21:33:45.097Z,15.38
2022-11-08T21:38:53.556Z,15.31
2022-11-08T21:44:03.318Z,15.44
2022-11-08T21:49:12.438Z,15.31
2022-11-08T21:54:22.194Z,15.38
2022-11-08T21:59:30.676Z,15.38
2022-11-08T22:04:40.438Z,15.44
2022-11-08T22:09:49.612Z,15.38
2022-11-08T22:14:58.036Z,15.31
2022-11-08T22:20:06.521Z,15.25
2022-11-08T22:25:15.638Z,15.25
2022-11-08T22:30:26.041Z,15.25
2022-11-08T22:35:36.439Z,15.25
2022-11-08T22:40:46.202Z,15.31
2022-11-08T22:45:55.316Z,15.25
2022-11-08T22:51:05.078Z,15.19
2022-11-08T22:56:13.584Z,15.25
2022-11-08T23:01:21.400Z,15.31
2022-11-08T23:06:30.671Z,15.25
2022-11-08T23:11:42.295Z,15.38
2022-11-08T23:16:58.458Z,15.31
2022-11-08T23:22:13.371Z,15.25
2022-11-08T23:27:29.497Z,15.31
2022-11-08T23:32:44.379Z,15.19
2022-11-08T23:37:59.899Z,15.31
2022-11-08T23:43:14.778Z,15.31
2022-11-08T23:47:45.395Z,15.31
2022-11-08T23:52:53.878Z,15.38
2022-11-08T23:58:03.638Z,15.38
